createdAt,value
2022-08-09T01:08:06.321Z,4.38
2022-08-09T01:13:31.142Z,4.40
2022-08-09T01:18:47.695Z,4.28
2022-08-09T01:29:15.329Z,4.10
2022-08-09T01:34:21.504Z,3.92
2022-08-09T01:39:28.422Z,3.90
2022-08-09T01:44:33.421Z,3.97
2022-08-09T01:49:39.106Z,4.50
2022-08-09T01:54:52.719Z,4.57
2022-08-09T02:00:08.828Z,4.25
2022-08-09T02:05:38.096Z,4.28
2022-08-09T02:10:50.689Z,3.97
2022-08-09T17:27:49.149Z,2.33
2022-08-09T17:33:01.006Z,2.10
2022-08-09T17:38:13.745Z,1.90
2022-08-09T17:43:34.588Z,2.60
2022-08-09T17:48:51.935Z,1.88
2022-08-09T17:53:55.911Z,2.60
2022-08-09T17:59:03.395Z,2.00
2022-08-09T18:04:11.973Z,2.13
2022-08-09T18:09:16.209Z,2.10
2022-08-09T18:14:19.469Z,1.98
2022-08-09T18:20:55.623Z,1.60
2022-08-09T18:24:46.357Z,2.00
2022-08-09T18:30:35.443Z,2.00
2022-08-09T18:35:11.321Z,2.25
2022-08-09T18:40:13.931Z,2.20
2022-08-09T18:45:21.759Z,2.10
2022-08-09T18:50:43.145Z,2.20
2022-08-09T18:55:57.058Z,1.85
2022-08-09T19:01:07.821Z,2.15
2022-08-09T19:06:14.535Z,2.00
2022-08-09T19:11:17.189Z,2.30
2022-08-09T19:16:23.658Z,2.30
2022-08-09T19:21:51.863Z,2.03
2022-08-09T19:26:54.842Z,2.13
2022-08-09T19:31:59.853Z,2.00
2022-08-09T19:37:03.062Z,2.25
2022-08-09T19:42:05.738Z,2.13
2022-08-09T19:47:11.281Z,1.90
2022-08-09T19:52:13.731Z,1.67
2022-08-09T19:57:16.499Z,1.80
2022-08-09T20:04:23.809Z,1.92
2022-08-09T20:07:59.323Z,2.28
2022-08-09T20:13:04.814Z,2.17
2022-08-09T20:18:08.389Z,2.53
2022-08-09T20:23:12.393Z,2.08
2022-08-09T20:28:28.116Z,1.92
2022-08-09T20:33:41.126Z,2.10
2022-08-09T20:39:29.192Z,2.33
2022-08-09T20:44:10.102Z,2.28
2022-08-09T20:49:14.156Z,2.42
2022-08-09T20:54:18.763Z,2.00
2022-08-09T21:00:20.025Z,1.90
2022-08-09T21:05:51.340Z,1.92
2022-08-09T21:10:08.600Z,1.88
2022-08-09T21:15:12.877Z,2.00
2022-08-09T21:20:25.258Z,2.10
2022-08-09T21:25:56.035Z,2.00
2022-08-09T21:31:16.704Z,2.05
2022-08-09T21:36:28.901Z,2.42
2022-08-09T21:42:04.739Z,2.80
